createdAt,value
2023-10-17T00:01:56.113Z,11.45
2023-10-17T00:04:24.532Z,11.46
2023-10-17T00:06:54.423Z,11.38
2023-10-17T00:09:26.027Z,11.40
2023-10-17T00:11:56.480Z,11.52
2023-10-17T00:14:38.402Z,11.51
2023-10-17T00:17:06.787Z,11.52
2023-10-17T00:19:35.041Z,11.41
2023-10-17T00:22:06.246Z,11.38
2023-10-17T00:24:37.579Z,11.41
2023-10-17T00:27:08.181Z,11.46
2023-10-17T00:29:36.561Z,11.43
2023-10-17T00:32:04.975Z,11.35
2023-10-17T00:34:38.128Z,11.26
2023-10-17T00:37:12.737Z,11.29
2023-10-17T00:39:41.380Z,11.32
2023-10-17T00:42:10.093Z,11.36
2023-10-17T00:44:42.746Z,11.39
2023-10-17T00:47:13.230Z,11.40
2023-10-17T00:49:45.701Z,11.48
2023-10-17T00:52:25.804Z,11.58
2023-10-17T00:54:55.356Z,11.48
2023-10-17T00:57:28.382Z,11.47
2023-10-17T00:59:58.583Z,11.45
2023-10-17T01:02:33.126Z,11.50
2023-10-17T01:05:01.786Z,11.55
2023-10-17T01:07:35.687Z,11.56
2023-10-17T01:10:12.089Z,11.52
2023-10-17T01:13:01.778Z,11.48
2023-10-17T01:15:34.047Z,11.44
2023-10-17T01:18:05.641Z,11.23
2023-10-17T01:20:35.926Z,11.18
2023-10-17T01:23:05.689Z,11.20
2023-10-17T01:25:42.152Z,11.21
2023-10-17T01:28:11.746Z,11.19
2023-10-17T01:30:42.616Z,11.15
2023-10-17T01:33:11.541Z,11.00
2023-10-17T01:35:45.226Z,11.00
2023-10-17T01:38:14.423Z,10.96
2023-10-17T01:40:42.701Z,10.88
2023-10-17T01:43:11.738Z,10.84
2023-10-17T01:45:43.572Z,10.82
2023-10-17T01:48:12.710Z,10.79
2023-10-17T01:50:41.124Z,10.80
2023-10-17T01:53:13.961Z,10.78
2023-10-17T01:55:53.272Z,10.83
2023-10-17T01:58:23.407Z,10.79
2023-10-17T02:00:56.075Z,10.77
2023-10-17T02:03:24.660Z,10.70
2023-10-17T02:05:52.931Z,10.65
2023-10-17T02:08:23.282Z,10.57
2023-10-17T02:10:52.331Z,10.50
2023-10-17T02:13:22.408Z,10.48
2023-10-17T02:15:52.028Z,10.60
2023-10-17T02:18:20.684Z,10.55
2023-10-17T02:20:52.788Z,10.49
2023-10-17T02:23:21.421Z,10.48
2023-10-17T02:25:51.680Z,10.58
2023-10-17T02:28:21.403Z,10.63
2023-10-17T02:30:49.913Z,10.64
2023-10-17T02:33:18.767Z,10.65
2023-10-17T02:36:12.131Z,10.63
2023-10-17T02:38:41.671Z,10.62
2023-10-17T02:41:25.595Z,10.56
2023-10-17T02:43:55.115Z,10.50
2023-10-17T02:46:28.259Z,10.52
2023-10-17T02:48:57.296Z,10.45
2023-10-17T02:51:28.901Z,10.46
2023-10-17T02:53:57.738Z,10.49
2023-10-17T02:56:27.422Z,10.47
2023-10-17T02:59:13.361Z,10.43
2023-10-17T03:01:44.264Z,10.40
2023-10-17T03:04:14.539Z,10.42
2023-10-17T03:06:46.001Z,10.46
2023-10-17T03:09:24.735Z,10.45
2023-10-17T03:11:57.992Z,10.56
2023-10-17T03:14:34.351Z,10.53
2023-10-17T03:17:05.425Z,10.51
2023-10-17T03:19:34.946Z,10.52
2023-10-17T03:22:25.417Z,10.54
2023-10-17T03:25:02.852Z,10.57
2023-10-17T03:27:39.350Z,10.58
2023-10-17T03:30:12.667Z,10.59
2023-10-17T03:32:59.267Z,10.62
2023-10-17T03:35:36.475Z,10.70
2023-10-17T03:38:05.488Z,10.79
2023-10-17T03:40:52.134Z,10.77
2023-10-17T03:43:22.898Z,10.77
2023-10-17T03:45:57.918Z,10.79
2023-10-17T03:48:30.521Z,10.81
2023-10-17T03:51:00.916Z,10.79
2023-10-17T03:53:33.290Z,10.75
2023-10-17T03:56:03.692Z,10.78
2023-10-17T03:58:32.523Z,10.74
2023-10-17T04:01:11.561Z,10.69
2023-10-17T04:03:39.971Z,10.54
2023-10-17T04:06:08.521Z,10.50
2023-10-17T04:08:49.709Z,10.38
2023-10-17T04:11:23.332Z,10.27
2023-10-17T04:13:56.348Z,10.24
2023-10-17T04:16:35.671Z,10.17
2023-10-17T04:19:22.172Z,10.05
2023-10-17T04:22:02.818Z,10.13
2023-10-17T04:24:40.328Z,10.20
2023-10-17T04:27:14.513Z,10.23
2023-10-17T04:29:51.640Z,10.26
2023-10-17T04:32:23.021Z,10.26
2023-10-17T04:34:53.861Z,10.33
2023-10-17T04:37:35.059Z,10.39
2023-10-17T04:40:29.066Z,10.44
2023-10-17T04:42:58.529Z,10.52
2023-10-17T04:45:30.844Z,10.59
2023-10-17T04:48:19.327Z,10.72
2023-10-17T04:50:57.421Z,10.83
2023-10-17T04:53:36.602Z,10.96
2023-10-17T04:56:17.228Z,11.02
2023-10-17T04:58:49.020Z,11.10
2023-10-17T05:01:38.231Z,11.17
2023-10-17T05:04:20.810Z,11.13
2023-10-17T05:06:58.530Z,11.17
2023-10-17T05:09:33.071Z,11.17
2023-10-17T05:12:20.176Z,11.18
2023-10-17T05:15:09.496Z,11.17
2023-10-17T05:17:56.547Z,11.10
2023-10-17T05:20:44.879Z,11.05
2023-10-17T05:23:32.805Z,10.97
2023-10-17T05:26:27.052Z,10.99
2023-10-17T05:29:13.911Z,11.01
2023-10-17T05:32:03.359Z,10.97
2023-10-17T05:34:51.310Z,10.95
2023-10-17T05:37:41.128Z,10.99
2023-10-17T05:40:28.138Z,11.05
2023-10-17T05:43:14.765Z,11.08
2023-10-17T05:46:01.442Z,11.11
2023-10-17T05:48:50.935Z,11.13
2023-10-17T05:51:37.995Z,11.11
2023-10-17T05:54:55.876Z,11.14
2023-10-17T05:57:34.605Z,11.21
2023-10-17T06:00:21.491Z,11.28
2023-10-17T06:03:25.421Z,11.28
2023-10-17T06:06:25.428Z,11.36
2023-10-17T06:09:19.448Z,11.41
2023-10-17T06:12:08.638Z,11.47
2023-10-17T06:14:55.714Z,11.57
2023-10-17T06:17:25.138Z,11.69
2023-10-17T06:19:53.898Z,11.86
2023-10-17T06:22:22.190Z,11.91
2023-10-17T06:25:02.346Z,11.99
2023-10-17T06:27:52.385Z,12.05
2023-10-17T06:30:30.641Z,12.06
2023-10-17T06:33:18.988Z,12.05
2023-10-17T06:35:55.557Z,12.04
2023-10-17T06:38:31.161Z,12.05
2023-10-17T06:41:17.214Z,12.02
2023-10-17T06:43:51.434Z,12.08
2023-10-17T06:46:40.884Z,12.15
2023-10-17T06:49:10.222Z,12.29
2023-10-17T06:51:40.202Z,12.35
2023-10-17T06:54:08.857Z,12.46
2023-10-17T06:56:45.532Z,12.59
2023-10-17T06:59:25.143Z,12.78
2023-10-17T07:02:27.394Z,12.97
2023-10-17T07:04:59.293Z,13.16
2023-10-17T07:07:41.466Z,13.29
2023-10-17T07:10:29.708Z,13.44
2023-10-17T07:13:40.552Z,13.64
2023-10-17T07:16:15.257Z,13.81
2023-10-17T07:18:48.426Z,13.80
2023-10-17T07:21:18.440Z,13.86
2023-10-17T07:23:51.370Z,13.96
2023-10-17T07:26:25.423Z,13.94
2023-10-17T07:28:54.223Z,14.06
2023-10-17T07:31:26.079Z,14.15
2023-10-17T07:34:17.526Z,14.26
2023-10-17T07:36:49.172Z,14.17
2023-10-17T07:39:24.080Z,14.31
2023-10-17T07:41:55.320Z,14.56
2023-10-17T07:44:28.157Z,14.77
2023-10-17T07:47:04.678Z,15.01
2023-10-17T07:49:35.519Z,15.19
2023-10-17T07:52:16.922Z,15.29
2023-10-17T07:55:21.367Z,15.40
2023-10-17T07:57:56.637Z,15.83
2023-10-17T08:00:30.368Z,15.94
2023-10-17T08:03:18.862Z,15.82
2023-10-17T08:06:09.070Z,15.81
2023-10-17T08:08:43.528Z,15.86
2023-10-17T08:11:33.216Z,15.89
2023-10-17T08:14:05.466Z,15.91
2023-10-17T08:16:34.455Z,15.96
2023-10-17T08:19:23.148Z,15.98
2023-10-17T08:21:54.749Z,15.94
2023-10-17T08:24:41.916Z,15.96
2023-10-17T08:27:22.730Z,15.81
2023-10-17T08:30:13.454Z,15.80
2023-10-17T08:33:00.882Z,15.89
2023-10-17T08:35:39.285Z,15.97
2023-10-17T08:38:08.522Z,16.00
2023-10-17T08:40:36.802Z,16.00
2023-10-17T08:43:16.456Z,15.89
2023-10-17T08:45:49.024Z,15.92
2023-10-17T08:48:17.756Z,15.99
2023-10-17T08:50:46.183Z,16.07
2023-10-17T08:53:15.156Z,16.22
2023-10-17T08:55:43.606Z,16.24
2023-10-17T08:58:12.368Z,16.22
2023-10-17T09:00:47.283Z,16.20
2023-10-17T09:03:30.852Z,16.17
2023-10-17T09:06:08.851Z,16.12
2023-10-17T09:08:52.608Z,16.22
2023-10-17T09:11:42.845Z,16.21
2023-10-17T09:14:31.134Z,16.31
2023-10-17T09:17:27.618Z,16.37
2023-10-17T09:19:58.388Z,16.33
2023-10-17T09:22:29.494Z,16.27
2023-10-17T09:25:01.115Z,16.32
2023-10-17T09:27:32.917Z,16.40
2023-10-17T09:30:01.359Z,16.47
2023-10-17T09:32:41.830Z,16.47
2023-10-17T09:35:17.162Z,16.55
2023-10-17T09:37:52.870Z,16.55
2023-10-17T09:40:31.688Z,16.59
2023-10-17T09:43:01.584Z,16.53
2023-10-17T09:45:37.104Z,16.66
2023-10-17T09:48:09.848Z,16.70
2023-10-17T09:50:39.666Z,16.73
2023-10-17T09:53:19.159Z,16.61
2023-10-17T09:55:50.473Z,16.42
2023-10-17T09:58:32.810Z,16.46
2023-10-17T10:01:18.567Z,16.62
2023-10-17T10:03:50.107Z,16.76
2023-10-17T10:06:32.278Z,16.91
2023-10-17T10:09:26.503Z,16.98
2023-10-17T10:11:56.750Z,17.16
2023-10-17T10:14:32.009Z,17.22
2023-10-17T10:17:04.340Z,17.24
2023-10-17T10:19:52.089Z,17.26
2023-10-17T10:22:20.410Z,17.36
2023-10-17T10:25:04.057Z,17.43
2023-10-17T10:27:32.742Z,17.52
2023-10-17T10:30:44.947Z,17.59
2023-10-17T10:33:14.945Z,17.63
2023-10-17T10:35:46.624Z,17.60
2023-10-17T10:38:15.905Z,17.67
2023-10-17T10:40:47.374Z,17.55
2023-10-17T10:43:20.231Z,17.67
2023-10-17T10:45:56.589Z,17.77
2023-10-17T10:48:27.908Z,17.75
2023-10-17T10:50:59.100Z,17.76
2023-10-17T10:53:40.561Z,17.92
2023-10-17T10:56:12.400Z,18.09
2023-10-17T10:58:48.888Z,18.23
2023-10-17T11:01:17.447Z,18.25
2023-10-17T11:03:49.880Z,18.14
2023-10-17T11:06:26.200Z,18.26
2023-10-17T11:08:57.808Z,18.38
2023-10-17T11:11:27.054Z,18.44
2023-10-17T11:13:56.062Z,18.62
2023-10-17T11:16:26.675Z,18.85
2023-10-17T11:18:58.413Z,19.08
2023-10-17T11:21:26.900Z,19.41
2023-10-17T11:24:01.923Z,19.72
2023-10-17T11:26:35.552Z,20.01
2023-10-17T11:29:04.916Z,19.98
2023-10-17T11:31:34.614Z,19.60
2023-10-17T11:34:06.074Z,19.63
2023-10-17T11:36:49.438Z,19.67
2023-10-17T11:39:17.876Z,19.74
2023-10-17T11:41:54.478Z,19.64
2023-10-17T11:44:29.148Z,19.59
2023-10-17T11:47:04.418Z,19.53
2023-10-17T11:49:37.402Z,19.41
2023-10-17T11:52:13.851Z,19.16
2023-10-17T11:54:57.467Z,18.98
2023-10-17T11:57:32.758Z,18.86
2023-10-17T12:00:09.083Z,18.91
2023-10-17T12:02:43.266Z,19.07
2023-10-17T12:05:19.406Z,19.41
2023-10-17T12:07:51.548Z,19.28
2023-10-17T12:10:27.098Z,19.41
2023-10-17T12:13:07.866Z,19.52
2023-10-17T12:15:36.331Z,19.59
2023-10-17T12:18:04.868Z,19.81
2023-10-17T12:20:33.138Z,19.99
2023-10-17T12:23:01.882Z,20.21
2023-10-17T12:25:34.227Z,20.37
2023-10-17T12:28:03.667Z,20.57
2023-10-17T12:30:37.904Z,20.43
2023-10-17T12:33:10.228Z,20.37
2023-10-17T12:35:39.114Z,20.25
2023-10-17T12:38:15.475Z,20.04
2023-10-17T12:40:44.383Z,19.79
2023-10-17T12:43:13.284Z,19.44
2023-10-17T12:45:42.996Z,19.30
2023-10-17T12:48:12.437Z,19.48
2023-10-17T12:50:46.851Z,19.39
2023-10-17T12:53:15.799Z,19.69
2023-10-17T12:55:44.003Z,20.00
2023-10-17T12:58:12.273Z,20.25
2023-10-17T13:00:42.649Z,20.35
2023-10-17T13:03:11.035Z,20.49
2023-10-17T13:05:39.677Z,20.44
2023-10-17T13:08:08.569Z,20.33
2023-10-17T13:10:36.891Z,20.21
2023-10-17T13:13:05.247Z,20.16
2023-10-17T13:15:33.506Z,20.01
2023-10-17T13:18:08.045Z,19.95
2023-10-17T13:20:43.433Z,20.18
2023-10-17T13:23:24.793Z,20.31
2023-10-17T13:25:54.784Z,20.24
2023-10-17T13:28:26.487Z,20.23
2023-10-17T13:30:54.817Z,20.35
2023-10-17T13:33:23.221Z,20.37
2023-10-17T13:35:51.451Z,20.34
2023-10-17T13:38:21.538Z,20.29
2023-10-17T13:40:49.773Z,20.41
2023-10-17T13:43:19.126Z,20.49
2023-10-17T13:45:47.569Z,20.40
2023-10-17T13:48:16.021Z,20.29
2023-10-17T13:50:44.295Z,20.28
2023-10-17T13:53:18.125Z,19.93
2023-10-17T13:55:46.651Z,19.87
2023-10-17T13:58:16.884Z,19.88
2023-10-17T14:00:45.561Z,19.99
2023-10-17T14:03:15.453Z,20.15
2023-10-17T14:05:50.047Z,20.17
2023-10-17T14:08:19.680Z,20.03
2023-10-17T14:10:48.300Z,19.99
2023-10-17T14:13:18.652Z,19.75
2023-10-17T14:15:46.998Z,19.81
2023-10-17T14:18:16.033Z,19.83
2023-10-17T14:21:24.868Z,19.92
2023-10-17T14:23:59.319Z,19.94
2023-10-17T14:26:30.532Z,19.68
2023-10-17T14:29:01.660Z,19.55
2023-10-17T14:31:32.398Z,19.50
2023-10-17T14:34:02.047Z,19.34
2023-10-17T14:36:30.576Z,19.28
2023-10-17T14:39:00.915Z,19.18
2023-10-17T14:41:31.776Z,19.11
2023-10-17T14:44:02.958Z,18.92
2023-10-17T14:46:31.773Z,18.86
2023-10-17T14:49:03.115Z,18.78
2023-10-17T14:51:34.678Z,18.66
2023-10-17T14:54:07.281Z,18.65
2023-10-17T14:56:37.464Z,18.66
2023-10-17T14:59:06.526Z,18.56
2023-10-17T15:01:37.346Z,18.47
2023-10-17T15:04:07.200Z,18.43
2023-10-17T15:06:37.824Z,18.36
2023-10-17T15:09:10.243Z,18.36
2023-10-17T15:11:39.655Z,18.39
2023-10-17T15:14:10.086Z,18.37
2023-10-17T15:16:38.857Z,18.32
2023-10-17T15:19:09.991Z,18.17
2023-10-17T15:21:38.848Z,18.11
2023-10-17T15:24:11.571Z,18.08
2023-10-17T15:26:42.800Z,18.05
2023-10-17T15:29:13.488Z,18.04
2023-10-17T15:31:44.772Z,18.05
2023-10-17T15:34:14.783Z,17.95
2023-10-17T15:36:44.128Z,17.90
2023-10-17T15:39:14.548Z,17.89
2023-10-17T15:41:42.821Z,17.88
2023-10-17T15:44:13.997Z,17.78
2023-10-17T15:46:42.415Z,17.72
2023-10-17T15:49:14.486Z,17.63
2023-10-17T15:51:42.795Z,17.58
2023-10-17T15:54:11.251Z,17.55
2023-10-17T15:56:39.545Z,17.51
2023-10-17T15:59:10.920Z,17.41
2023-10-17T16:01:39.160Z,17.33
2023-10-17T16:04:08.339Z,17.27
2023-10-17T16:06:36.828Z,17.19
2023-10-17T16:09:08.489Z,17.11
2023-10-17T16:11:38.263Z,17.05
2023-10-17T16:14:06.576Z,16.92
2023-10-17T16:16:36.518Z,16.82
2023-10-17T16:19:05.202Z,16.76
2023-10-17T16:21:33.496Z,16.70
2023-10-17T16:24:02.961Z,16.72
2023-10-17T16:26:31.654Z,16.73
2023-10-17T16:29:00.081Z,16.65
2023-10-17T16:31:28.313Z,16.61
2023-10-17T16:33:57.194Z,16.49
2023-10-17T16:36:26.670Z,16.27
2023-10-17T16:38:55.544Z,16.07
2023-10-17T16:41:26.899Z,15.81
2023-10-17T16:43:55.200Z,15.64
2023-10-17T16:46:30.249Z,15.48
2023-10-17T16:49:01.192Z,15.31
2023-10-17T16:51:31.314Z,15.17
2023-10-17T16:53:59.880Z,15.08
2023-10-17T16:56:28.231Z,15.00
2023-10-17T16:58:58.377Z,14.82
2023-10-17T17:01:26.923Z,14.73
2023-10-17T17:03:55.366Z,14.65
2023-10-17T17:06:24.804Z,14.57
2023-10-17T17:08:59.010Z,14.50
2023-10-17T17:11:27.588Z,14.43
2023-10-17T17:13:55.899Z,14.29
2023-10-17T17:16:24.283Z,14.18
2023-10-17T17:18:52.682Z,14.07
2023-10-17T17:21:22.243Z,13.95
2023-10-17T17:23:51.030Z,13.86
2023-10-17T17:26:19.394Z,13.80
2023-10-17T17:28:47.719Z,13.71
2023-10-17T17:31:16.044Z,13.66
2023-10-17T17:33:44.412Z,13.60
2023-10-17T17:36:12.733Z,13.56
2023-10-17T17:38:44.440Z,13.52
2023-10-17T17:41:13.589Z,13.47
2023-10-17T17:43:47.228Z,13.44
2023-10-17T17:46:18.597Z,13.45
2023-10-17T17:48:48.391Z,13.37
2023-10-17T17:51:18.194Z,13.35
2023-10-17T17:53:48.730Z,13.31
2023-10-17T17:56:17.553Z,13.28
2023-10-17T17:58:48.493Z,13.25
2023-10-17T18:01:17.609Z,13.20
2023-10-17T18:03:46.283Z,13.15
2023-10-17T18:06:18.142Z,13.11
2023-10-17T18:11:36.455Z,13.04
2023-10-17T18:14:07.626Z,13.01
2023-10-17T18:16:42.082Z,12.96
2023-10-17T18:19:10.542Z,12.89
2023-10-17T18:21:38.965Z,12.87
2023-10-17T18:24:08.482Z,12.84
2023-10-17T18:26:42.104Z,12.80
2023-10-17T18:29:13.499Z,12.73
2023-10-17T18:31:42.389Z,12.72
2023-10-17T18:34:11.782Z,12.69
2023-10-17T18:36:40.244Z,12.68
2023-10-17T18:39:11.564Z,12.67
2023-10-17T18:41:41.926Z,12.66
2023-10-17T18:44:15.731Z,12.63
2023-10-17T18:46:48.423Z,12.57
2023-10-17T18:49:19.304Z,12.52
2023-10-17T18:51:47.720Z,12.51
2023-10-17T18:54:16.324Z,12.43
2023-10-17T18:56:45.108Z,12.50
2023-10-17T18:59:14.034Z,12.51
2023-10-17T19:01:42.512Z,12.49
2023-10-17T19:04:11.706Z,12.47
2023-10-17T19:06:40.087Z,12.49
2023-10-17T19:09:11.788Z,12.40
2023-10-17T19:11:40.121Z,12.34
2023-10-17T19:14:08.528Z,12.31
2023-10-17T19:16:41.837Z,12.28
2023-10-17T19:19:10.688Z,12.22
2023-10-17T19:21:40.312Z,12.21
2023-10-17T19:24:09.221Z,12.16
2023-10-17T19:26:37.505Z,12.09
2023-10-17T19:29:06.177Z,12.02
2023-10-17T19:31:34.433Z,11.96
2023-10-17T19:34:03.092Z,11.96
2023-10-17T19:36:31.924Z,12.00
2023-10-17T19:39:08.087Z,12.01
2023-10-17T19:41:39.979Z,12.01
2023-10-17T19:44:08.477Z,12.05
2023-10-17T19:46:40.957Z,11.99
2023-10-17T19:49:12.718Z,11.99
2023-10-17T19:51:42.555Z,11.92
2023-10-17T19:54:12.467Z,11.87
2023-10-17T19:56:40.919Z,11.81
2023-10-17T19:59:11.286Z,11.80
2023-10-17T20:01:40.068Z,11.76
2023-10-17T20:04:08.456Z,11.73
2023-10-17T20:06:36.830Z,11.78
2023-10-17T20:09:08.574Z,11.73
2023-10-17T20:11:39.326Z,11.66
2023-10-17T20:14:08.375Z,11.61
2023-10-17T20:16:36.763Z,11.61
2023-10-17T20:19:05.083Z,11.61
2023-10-17T20:21:33.366Z,11.67
2023-10-17T20:24:01.657Z,11.60
2023-10-17T20:26:29.862Z,11.55
2023-10-17T20:28:58.128Z,11.52
2023-10-17T20:31:28.175Z,11.53
2023-10-17T20:33:58.121Z,11.52
2023-10-17T20:36:26.565Z,11.54
2023-10-17T20:38:54.829Z,11.50
2023-10-17T20:41:23.357Z,11.40
2023-10-17T20:43:52.367Z,11.43
2023-10-17T20:46:21.067Z,11.37
2023-10-17T20:48:50.336Z,11.31
2023-10-17T20:51:19.584Z,11.23
2023-10-17T20:53:48.698Z,11.21
2023-10-17T20:56:30.265Z,11.19
2023-10-17T20:59:02.826Z,11.16
2023-10-17T21:01:31.075Z,11.13
2023-10-17T21:03:59.827Z,11.09
2023-10-17T21:06:31.112Z,11.12
2023-10-17T21:08:59.684Z,11.10
2023-10-17T21:11:28.768Z,11.12
2023-10-17T21:13:58.356Z,11.11
2023-10-17T21:16:27.865Z,11.05
2023-10-17T21:18:56.321Z,10.99
2023-10-17T21:21:24.636Z,10.96
2023-10-17T21:23:54.758Z,10.91
2023-10-17T21:26:23.081Z,11.00
2023-10-17T21:28:53.781Z,11.00
2023-10-17T21:31:22.531Z,11.00
2023-10-17T21:33:51.186Z,10.82
2023-10-17T21:36:19.418Z,10.55
2023-10-17T21:38:47.830Z,10.56
2023-10-17T21:41:16.166Z,10.59
2023-10-17T21:43:44.571Z,10.72
2023-10-17T21:46:13.255Z,10.75
2023-10-17T21:48:47.743Z,10.68
2023-10-17T21:51:16.388Z,10.55
2023-10-17T21:53:45.691Z,10.37
2023-10-17T21:56:15.443Z,10.20
2023-10-17T21:58:48.435Z,10.10
2023-10-17T22:01:23.699Z,9.89
2023-10-17T22:03:52.295Z,9.79
2023-10-17T22:06:22.902Z,9.84
2023-10-17T22:08:51.097Z,10.02
2023-10-17T22:11:22.323Z,10.17
2023-10-17T22:13:51.633Z,10.29
2023-10-17T22:16:23.605Z,10.37
2023-10-17T22:18:52.233Z,10.42
2023-10-17T22:21:21.620Z,10.36
2023-10-17T22:23:51.692Z,10.20
2023-10-17T22:26:25.257Z,10.26
2023-10-17T22:28:54.739Z,10.23
2023-10-17T22:31:23.227Z,10.22
2023-10-17T22:33:51.738Z,10.08
2023-10-17T22:36:20.052Z,9.93
2023-10-17T22:38:48.433Z,9.91
2023-10-17T22:41:16.676Z,9.90
2023-10-17T22:43:44.975Z,10.05
2023-10-17T22:46:13.297Z,10.04
2023-10-17T22:48:41.627Z,10.08
2023-10-17T22:51:09.866Z,10.09
2023-10-17T22:53:39.365Z,10.11
2023-10-17T22:56:12.773Z,10.11
2023-10-17T22:58:42.032Z,10.03
2023-10-17T23:01:13.639Z,10.03
2023-10-17T23:03:42.699Z,10.03
2023-10-17T23:06:11.650Z,10.07
2023-10-17T23:08:41.587Z,10.08
2023-10-17T23:11:11.124Z,10.15
2023-10-17T23:13:39.465Z,10.13
2023-10-17T23:16:11.080Z,9.84
2023-10-17T23:18:42.632Z,9.89
2023-10-17T23:21:11.249Z,9.86
2023-10-17T23:23:39.719Z,9.76
2023-10-17T23:26:08.720Z,9.71
2023-10-17T23:28:37.512Z,9.64
2023-10-17T23:31:08.377Z,9.65
2023-10-17T23:33:36.829Z,9.66
2023-10-17T23:36:05.494Z,9.65
2023-10-17T23:38:33.854Z,9.69
2023-10-17T23:41:02.123Z,9.75
2023-10-17T23:43:30.541Z,9.82
2023-10-17T23:45:58.727Z,9.85
2023-10-17T23:48:28.192Z,9.82
2023-10-17T23:50:57.090Z,9.82
2023-10-17T23:53:28.824Z,9.71
2023-10-17T23:56:02.385Z,9.69
2023-10-17T23:58:33.339Z,9.75
